createdAt,value
2023-04-14T00:01:32.085Z,4.60
2023-04-14T00:04:02.465Z,5.43
2023-04-14T00:06:30.962Z,3.47
2023-04-14T00:08:59.771Z,4.17
2023-04-14T00:11:28.298Z,3.80
2023-04-14T00:13:57.662Z,7.90
2023-04-14T00:16:26.000Z,5.63
2023-04-14T00:18:55.061Z,5.60
2023-04-14T00:21:24.881Z,4.10
2023-04-14T00:23:53.382Z,6.23
2023-04-14T00:26:21.553Z,2.87
2023-04-14T00:28:49.951Z,5.57
2023-04-14T00:31:18.643Z,4.10
2023-04-14T00:33:46.980Z,7.53
2023-04-14T00:36:15.428Z,7.00
2023-04-14T00:38:44.984Z,3.07
2023-04-14T00:41:13.693Z,2.80
2023-04-14T00:43:42.136Z,3.97
2023-04-14T00:46:10.989Z,4.33
2023-04-14T00:48:39.822Z,4.83
2023-04-14T00:51:08.242Z,4.13
2023-04-14T00:53:36.541Z,6.73
2023-04-14T00:56:06.709Z,5.60
2023-04-14T00:58:34.986Z,3.70
2023-04-14T01:01:03.544Z,4.23
2023-04-14T01:03:32.212Z,5.33
2023-04-14T01:06:00.870Z,8.07
2023-04-14T01:08:29.718Z,4.27
2023-04-14T01:11:11.985Z,3.67
2023-04-14T01:13:47.668Z,3.63
2023-04-14T01:16:20.594Z,5.23
2023-04-14T01:18:57.981Z,4.37
2023-04-14T01:21:33.356Z,6.40
2023-04-14T01:24:17.155Z,4.93
2023-04-14T01:26:47.675Z,7.63
2023-04-14T01:29:35.179Z,4.40
2023-04-14T01:32:08.241Z,2.87
2023-04-14T01:34:40.457Z,3.83
2023-04-14T01:37:14.771Z,5.33
2023-04-14T01:39:49.590Z,2.83
2023-04-14T01:42:23.606Z,3.20
2023-04-14T01:44:57.914Z,3.50
2023-04-14T01:47:30.039Z,1.93
2023-04-14T01:50:00.232Z,2.73
2023-04-14T01:52:30.634Z,1.67
2023-04-14T01:55:01.605Z,1.80
2023-04-14T01:57:30.825Z,1.77
2023-04-14T02:00:02.722Z,4.00
2023-04-14T02:02:34.122Z,2.83
2023-04-14T02:05:04.428Z,2.53
2023-04-14T02:07:34.710Z,3.47
2023-04-14T02:10:04.833Z,3.33
2023-04-14T02:12:33.479Z,4.60
2023-04-14T02:15:02.880Z,2.23
2023-04-14T02:17:33.258Z,2.53
2023-04-14T02:20:03.165Z,5.53
2023-04-14T02:22:31.526Z,1.93
2023-04-14T02:24:59.916Z,5.53
2023-04-14T02:27:38.070Z,5.17
2023-04-14T02:30:10.456Z,2.73
2023-04-14T02:32:46.121Z,2.20
2023-04-14T02:35:18.669Z,5.53
2023-04-14T02:37:53.863Z,2.80
2023-04-14T02:40:26.577Z,4.27
2023-04-14T02:43:01.326Z,3.00
2023-04-14T02:45:33.734Z,4.00
2023-04-14T02:48:11.083Z,4.23
2023-04-14T02:50:44.392Z,3.63
2023-04-14T02:53:13.950Z,5.50
2023-04-14T02:55:43.205Z,2.83
2023-04-14T02:58:11.925Z,4.73
2023-04-14T03:00:41.884Z,3.20
2023-04-14T03:03:12.948Z,5.67
2023-04-14T03:05:42.098Z,4.27
2023-04-14T03:08:12.271Z,3.23
2023-04-14T03:10:41.120Z,4.73
2023-04-14T03:13:12.787Z,4.27
2023-04-14T03:15:42.676Z,4.80
2023-04-14T03:18:15.908Z,5.73
2023-04-14T03:20:45.893Z,4.27
2023-04-14T03:23:19.026Z,2.43
2023-04-14T03:25:48.152Z,4.03
2023-04-14T03:28:20.638Z,3.23
2023-04-14T03:30:52.588Z,3.13
2023-04-14T03:33:26.041Z,5.27
2023-04-14T03:35:57.768Z,2.83
2023-04-14T03:38:28.380Z,3.90
2023-04-14T03:41:01.277Z,3.67
2023-04-14T03:43:29.847Z,3.73
2023-04-14T03:45:58.332Z,4.30
2023-04-14T03:48:31.279Z,2.73
2023-04-14T03:51:02.613Z,2.93
2023-04-14T03:53:34.612Z,3.67
2023-04-14T03:56:05.489Z,3.17
2023-04-14T03:58:35.784Z,6.00
2023-04-14T04:01:04.850Z,4.47
2023-04-14T04:03:35.902Z,4.37
2023-04-14T04:06:05.639Z,5.77
2023-04-14T04:08:36.980Z,4.43
2023-04-14T04:11:08.740Z,4.70
2023-04-14T04:13:37.771Z,3.87
2023-04-14T04:16:08.170Z,4.67
2023-04-14T04:18:40.478Z,6.53
2023-04-14T04:21:09.273Z,4.30
2023-04-14T04:23:41.978Z,6.73
2023-04-14T04:26:10.530Z,9.20
2023-04-14T04:28:41.257Z,6.63
2023-04-14T04:31:11.109Z,7.27
2023-04-14T04:33:41.487Z,7.00
2023-04-14T04:36:09.994Z,7.33
2023-04-14T04:38:38.003Z,7.63
2023-04-14T04:41:06.286Z,8.97
2023-04-14T04:43:34.392Z,8.33
2023-04-14T04:46:25.679Z,9.37
2023-04-14T04:48:59.910Z,8.43
2023-04-14T04:51:28.835Z,9.10
2023-04-14T04:53:57.207Z,14.23
2023-04-14T04:56:26.255Z,9.40
2023-04-14T04:58:54.803Z,11.60
2023-04-14T05:01:23.273Z,10.13
2023-04-14T05:03:51.346Z,8.37
2023-04-14T05:06:21.152Z,6.73
2023-04-14T05:08:51.285Z,5.70
2023-04-14T05:11:36.797Z,9.70
2023-04-14T05:19:43.481Z,6.97
2023-04-14T05:30:38.659Z,7.87
2023-04-14T05:33:06.832Z,7.67
2023-04-14T05:35:35.022Z,7.00
2023-04-14T05:38:24.904Z,8.30
2023-04-14T05:43:34.963Z,6.93
2023-04-14T05:46:03.220Z,7.20
2023-04-14T05:48:33.349Z,7.53
2023-04-14T05:51:01.779Z,10.10
2023-04-14T05:53:31.399Z,6.83
2023-04-14T05:55:59.492Z,11.67
2023-04-14T05:58:27.655Z,9.83
2023-04-14T06:00:55.799Z,10.70
2023-04-14T06:03:24.312Z,13.37
2023-04-14T06:05:53.186Z,9.80
2023-04-14T06:08:21.564Z,8.50
2023-04-14T06:10:50.959Z,9.83
2023-04-14T06:13:22.902Z,8.93
2023-04-14T06:15:51.115Z,12.13
2023-04-14T06:18:19.405Z,9.23
2023-04-14T06:20:47.492Z,8.90
2023-04-14T06:23:15.527Z,8.30
2023-04-14T06:25:43.525Z,11.07
2023-04-14T06:28:13.031Z,11.73
2023-04-14T06:30:41.118Z,8.90
2023-04-14T06:33:09.332Z,10.10
2023-04-14T06:35:37.344Z,8.57
2023-04-14T06:38:05.404Z,10.17
2023-04-14T06:40:33.440Z,13.30
2023-04-14T06:43:01.435Z,9.20
2023-04-14T06:45:31.026Z,11.77
2023-04-14T06:47:59.146Z,12.83
2023-04-14T06:50:27.336Z,9.83
2023-04-14T06:52:55.642Z,9.90
2023-04-14T06:55:23.713Z,9.23
2023-04-14T06:58:01.945Z,8.63
2023-04-14T07:00:31.603Z,7.40
2023-04-14T07:02:59.824Z,7.80
2023-04-14T07:05:28.038Z,9.17
2023-04-14T07:07:56.198Z,6.77
2023-04-14T07:10:24.232Z,11.40
2023-04-14T07:12:52.303Z,7.67
2023-04-14T07:15:20.545Z,10.20
2023-04-14T07:17:50.227Z,9.03
2023-04-14T07:20:18.531Z,8.07
2023-04-14T07:22:46.772Z,9.37
2023-04-14T07:25:15.414Z,9.27
2023-04-14T07:27:49.926Z,9.73
2023-04-14T07:30:28.320Z,8.70
2023-04-14T07:32:57.756Z,8.93
2023-04-14T07:35:26.207Z,7.77
2023-04-14T07:37:54.319Z,5.83
2023-04-14T07:40:22.259Z,5.97
2023-04-14T07:42:50.494Z,11.03
2023-04-14T07:45:19.077Z,10.53
2023-04-14T07:47:47.118Z,9.90
2023-04-14T07:50:19.188Z,10.90
2023-04-14T07:52:47.705Z,11.13
2023-04-14T07:55:15.867Z,7.27
2023-04-14T07:57:43.862Z,8.57
2023-04-14T08:00:13.153Z,7.90
2023-04-14T08:02:41.446Z,8.27
2023-04-14T08:05:09.941Z,8.00
2023-04-14T08:07:39.699Z,10.60
2023-04-14T08:10:08.539Z,7.77
2023-04-14T08:12:36.444Z,5.40
2023-04-14T08:15:05.029Z,6.40
2023-04-14T08:17:32.972Z,4.07
2023-04-14T08:20:00.963Z,4.27
2023-04-14T08:22:28.846Z,4.27
2023-04-14T08:24:58.134Z,7.63
2023-04-14T08:27:26.103Z,5.73
2023-04-14T08:29:54.270Z,6.63
2023-04-14T08:32:22.391Z,4.73
2023-04-14T08:35:35.317Z,5.77
2023-04-14T08:37:38.493Z,5.97
2023-04-14T08:40:11.100Z,5.80
2023-04-14T08:42:39.124Z,5.13
2023-04-14T08:45:08.128Z,4.47
2023-04-14T08:47:37.283Z,6.60
2023-04-14T08:50:08.029Z,6.43
2023-04-14T08:52:40.279Z,6.17
2023-04-14T08:55:13.358Z,11.00
2023-04-14T09:00:46.519Z,7.73
2023-04-14T09:03:18.604Z,6.70
2023-04-14T09:05:47.792Z,8.50
2023-04-14T09:08:17.623Z,8.23
2023-04-14T09:16:19.886Z,9.60
2023-04-14T09:18:48.443Z,6.83
2023-04-14T09:21:49.986Z,5.80
2023-04-14T09:24:21.003Z,5.40
2023-04-14T09:26:53.154Z,6.30
2023-04-14T09:29:22.595Z,5.83
2023-04-14T09:31:52.050Z,6.27
2023-04-14T09:40:17.908Z,7.43
2023-04-14T09:45:44.841Z,8.07
2023-04-14T09:48:14.644Z,7.40
2023-04-14T09:51:03.346Z,6.87
2023-04-14T09:53:33.311Z,6.27
2023-04-14T09:56:03.085Z,6.00
2023-04-14T09:58:32.785Z,4.03
2023-04-14T10:01:13.611Z,4.67
2023-04-14T10:03:43.439Z,6.07
2023-04-14T10:06:17.746Z,5.07
2023-04-14T10:08:49.201Z,7.70
2023-04-14T10:11:22.794Z,6.23
2023-04-14T10:13:54.156Z,5.93
2023-04-14T10:16:24.491Z,4.60
2023-04-14T10:18:53.475Z,6.47
2023-04-14T10:21:22.891Z,4.60
2023-04-14T10:23:51.498Z,5.40
2023-04-14T10:26:20.605Z,7.57
2023-04-14T10:28:51.515Z,5.87
2023-04-14T10:31:24.910Z,4.83
2023-04-14T10:33:54.083Z,3.80
2023-04-14T10:36:25.717Z,3.77
2023-04-14T10:39:02.060Z,7.27
2023-04-14T10:41:45.379Z,5.20
2023-04-14T10:44:27.211Z,4.67
2023-04-14T10:46:57.978Z,4.43
2023-04-14T10:49:33.814Z,3.97
2023-04-14T10:52:05.467Z,4.90
2023-04-14T10:54:55.800Z,3.40
2023-04-14T10:57:24.516Z,3.67
2023-04-14T10:59:56.953Z,5.40
2023-04-14T11:02:28.893Z,6.83
2023-04-14T11:05:02.300Z,4.93
2023-04-14T11:07:31.640Z,7.00
2023-04-14T11:10:03.459Z,4.00
2023-04-14T11:12:31.810Z,3.40
2023-04-14T11:15:04.688Z,4.73
2023-04-14T11:17:39.468Z,6.60
2023-04-14T11:20:15.833Z,4.17
2023-04-14T11:22:45.794Z,3.93
2023-04-14T11:25:16.244Z,3.33
2023-04-14T11:27:44.560Z,3.77
2023-04-14T11:30:15.940Z,5.53
2023-04-14T11:32:51.124Z,5.87
2023-04-14T11:35:19.670Z,3.80
2023-04-14T11:37:47.951Z,7.07
2023-04-14T11:40:17.072Z,3.40
2023-04-14T11:42:46.833Z,3.03
2023-04-14T11:45:16.484Z,2.83
2023-04-14T11:47:58.839Z,3.97
2023-04-14T11:50:28.078Z,3.83
2023-04-14T11:52:59.346Z,3.57
2023-04-14T11:55:28.103Z,5.00
2023-04-14T11:57:56.450Z,4.97
2023-04-14T12:00:25.006Z,3.50
2023-04-14T12:02:55.268Z,3.97
2023-04-14T12:05:25.575Z,4.47
2023-04-14T12:08:00.804Z,3.53
2023-04-14T12:10:29.188Z,3.77
2023-04-14T12:13:01.659Z,2.40
2023-04-14T12:15:30.501Z,2.30
2023-04-14T12:18:00.506Z,1.90
2023-04-14T12:20:30.311Z,2.40
2023-04-14T12:23:02.852Z,2.23
2023-04-14T12:25:33.850Z,1.73
2023-04-14T12:28:05.946Z,3.13
2023-04-14T12:30:34.570Z,4.13
2023-04-14T12:33:11.346Z,1.53
2023-04-14T12:35:40.456Z,2.63
2023-04-14T12:38:13.505Z,2.03
2023-04-14T12:40:43.863Z,3.83
2023-04-14T12:43:12.341Z,4.23
2023-04-14T12:45:44.517Z,3.40
2023-04-14T12:48:16.113Z,2.50
2023-04-14T12:50:44.543Z,2.20
2023-04-14T12:53:26.104Z,2.03
2023-04-14T12:56:07.496Z,2.00
2023-04-14T12:58:36.607Z,1.93
2023-04-14T13:01:06.105Z,2.90
2023-04-14T13:03:44.842Z,2.60
2023-04-14T13:06:16.330Z,2.60
2023-04-14T13:08:46.272Z,2.23
2023-04-14T13:11:14.663Z,3.43
2023-04-14T13:13:44.366Z,4.47
2023-04-14T13:16:17.048Z,5.07
2023-04-14T13:18:48.981Z,1.20
2023-04-14T13:21:17.107Z,1.70
2023-04-14T13:23:45.544Z,1.47
2023-04-14T13:26:13.928Z,1.53
2023-04-14T13:28:41.917Z,1.20
2023-04-14T13:31:13.356Z,4.03
2023-04-14T13:33:41.409Z,1.97
2023-04-14T13:36:11.088Z,1.20
2023-04-14T13:38:39.174Z,2.20
2023-04-14T13:41:07.204Z,0.97
2023-04-14T13:43:35.157Z,1.50
2023-04-14T13:46:03.222Z,1.47
2023-04-14T13:48:32.365Z,0.90
2023-04-14T13:51:01.822Z,1.00
2023-04-14T13:53:31.256Z,1.27
2023-04-14T13:55:59.400Z,1.50
2023-04-14T13:58:27.430Z,2.33
2023-04-14T14:00:56.248Z,1.20
2023-04-14T14:03:25.089Z,1.20
2023-04-14T14:05:54.514Z,1.33
2023-04-14T14:08:22.503Z,1.00
2023-04-14T14:10:51.918Z,3.20
2023-04-14T14:13:20.518Z,1.70
2023-04-14T14:15:48.817Z,1.90
2023-04-14T14:18:17.670Z,2.53
2023-04-14T14:20:45.662Z,3.30
2023-04-14T14:23:13.692Z,1.87
2023-04-14T14:25:41.971Z,2.13
2023-04-14T14:28:12.580Z,1.93
2023-04-14T14:30:40.663Z,1.90
2023-04-14T14:33:08.949Z,3.03
2023-04-14T14:35:38.625Z,2.60
2023-04-14T14:38:07.318Z,2.03
2023-04-14T14:40:35.738Z,1.57
2023-04-14T14:43:03.787Z,2.40
2023-04-14T14:45:34.535Z,3.40
2023-04-14T14:48:04.933Z,1.77
2023-04-14T14:50:33.033Z,0.97
2023-04-14T14:53:00.985Z,2.30
2023-04-14T14:55:28.898Z,2.90
2023-04-14T14:57:56.755Z,2.07
2023-04-14T15:00:24.742Z,1.40
2023-04-14T15:02:54.680Z,2.37
2023-04-14T15:05:22.781Z,2.93
2023-04-14T15:07:50.947Z,1.30
2023-04-14T15:10:19.110Z,1.80
2023-04-14T15:12:47.124Z,4.43
2023-04-14T15:15:15.574Z,1.80
2023-04-14T15:17:43.540Z,1.17
2023-04-14T15:20:14.397Z,1.30
2023-04-14T15:22:42.482Z,1.93
2023-04-14T15:25:11.103Z,2.00
2023-04-14T15:27:38.869Z,3.60
2023-04-14T15:30:08.810Z,1.67
2023-04-14T15:32:37.079Z,2.53
2023-04-14T15:35:06.188Z,4.03
2023-04-14T15:37:37.197Z,1.30
2023-04-14T15:40:06.966Z,2.67
2023-04-14T15:42:34.883Z,2.00
2023-04-14T15:45:03.143Z,2.40
2023-04-14T15:47:31.561Z,2.10
2023-04-14T15:50:08.557Z,2.13
2023-04-14T15:52:41.001Z,2.50
2023-04-14T15:55:10.551Z,2.53
2023-04-14T15:57:38.832Z,3.40
2023-04-14T16:00:08.398Z,4.27
2023-04-14T16:02:36.446Z,3.00
2023-04-14T16:05:05.339Z,6.37
2023-04-14T16:07:33.441Z,4.03
2023-04-14T16:10:07.287Z,3.57
2023-04-14T16:12:36.683Z,4.57
2023-04-14T16:15:09.907Z,4.43
2023-04-14T16:20:11.585Z,6.43
2023-04-14T16:22:40.434Z,4.40
2023-04-14T16:25:10.868Z,13.10
2023-04-14T16:27:40.233Z,5.47
2023-04-14T16:30:09.422Z,5.20
2023-04-14T16:32:39.360Z,3.50
2023-04-14T16:35:12.636Z,5.20
2023-04-14T16:37:41.037Z,5.17
2023-04-14T16:40:12.246Z,6.67
2023-04-14T16:42:41.620Z,7.10
2023-04-14T16:45:10.693Z,6.53
2023-04-14T16:47:38.802Z,6.63
2023-04-14T16:50:10.467Z,6.50
2023-04-14T16:52:38.893Z,4.57
2023-04-14T16:55:07.503Z,11.40
2023-04-14T16:57:37.457Z,7.03
2023-04-14T17:00:07.376Z,4.43
2023-04-14T17:02:37.949Z,3.87
2023-04-14T17:05:10.146Z,3.57
2023-04-14T17:07:38.475Z,4.87
2023-04-14T17:10:07.162Z,3.33
2023-04-14T17:12:36.479Z,5.70
2023-04-14T17:15:04.874Z,4.20
2023-04-14T17:17:35.128Z,2.63
2023-04-14T17:20:06.156Z,4.40
2023-04-14T17:22:34.650Z,2.43
2023-04-14T17:25:04.802Z,2.43
2023-04-14T17:27:32.954Z,3.17
2023-04-14T17:30:04.067Z,3.43
2023-04-14T17:32:33.593Z,4.63
2023-04-14T17:35:01.832Z,6.00
2023-04-14T17:37:30.671Z,7.07
2023-04-14T17:39:59.002Z,5.80
2023-04-14T17:42:28.379Z,2.60
2023-04-14T17:44:56.968Z,2.03
2023-04-14T17:47:27.009Z,3.93
2023-04-14T17:49:55.267Z,3.73
2023-04-14T17:52:23.353Z,4.03
2023-04-14T17:54:52.327Z,3.57
2023-04-14T17:57:20.611Z,2.20
2023-04-14T17:59:48.692Z,2.67
2023-04-14T18:02:16.738Z,1.80
2023-04-14T18:04:47.236Z,2.83
2023-04-14T18:07:15.042Z,2.97
2023-04-14T18:09:42.984Z,1.87
2023-04-14T18:12:10.943Z,2.40
2023-04-14T18:14:39.459Z,1.97
2023-04-14T18:17:07.690Z,2.90
2023-04-14T18:19:35.911Z,3.30
2023-04-14T18:22:05.578Z,1.93
2023-04-14T18:29:36.903Z,2.47
2023-04-14T18:32:04.782Z,4.17
2023-04-14T18:34:33.609Z,4.37
2023-04-14T18:37:04.037Z,2.90
2023-04-14T18:39:36.531Z,2.83
2023-04-14T18:42:04.660Z,2.77
2023-04-14T18:44:32.926Z,3.33
2023-04-14T18:47:01.212Z,3.17
2023-04-14T18:49:29.382Z,4.23
2023-04-14T18:51:58.105Z,2.40
2023-04-14T18:54:26.169Z,3.10
2023-04-14T18:56:55.981Z,3.33
2023-04-14T18:59:27.715Z,3.27
2023-04-14T19:01:55.911Z,2.63
2023-04-14T19:04:24.672Z,3.97
2023-04-14T19:06:54.244Z,4.13
2023-04-14T19:09:23.194Z,6.53
2023-04-14T19:11:51.606Z,4.27
2023-04-14T19:14:20.862Z,5.70
2023-04-14T19:16:49.189Z,3.90
2023-04-14T19:19:17.073Z,4.27
2023-04-14T19:21:45.323Z,5.53
2023-04-14T19:24:13.413Z,7.00
2023-04-14T19:26:41.563Z,4.30
2023-04-14T19:29:09.567Z,5.40
2023-04-14T19:31:39.247Z,6.80
2023-04-14T19:34:07.195Z,8.33
2023-04-14T19:36:35.861Z,3.53
2023-04-14T19:39:05.322Z,4.50
2023-04-14T19:41:33.908Z,4.03
2023-04-14T19:44:03.823Z,4.53
2023-04-14T19:46:32.929Z,5.43
2023-04-14T19:49:02.768Z,5.67
2023-04-14T19:51:33.557Z,5.63
2023-04-14T19:54:02.152Z,4.13
2023-04-14T19:56:30.424Z,4.93
2023-04-14T19:58:59.029Z,7.23
2023-04-14T20:01:27.227Z,5.20
2023-04-14T20:04:06.648Z,4.93
2023-04-14T20:06:42.800Z,4.80
2023-04-14T20:09:11.075Z,5.77
2023-04-14T20:11:38.968Z,6.90
2023-04-14T20:14:06.932Z,5.97
2023-04-14T20:16:35.137Z,6.60
2023-04-14T20:19:03.471Z,10.27
2023-04-14T20:21:31.611Z,7.60
2023-04-14T20:24:01.916Z,5.37
2023-04-14T20:26:29.837Z,5.67
2023-04-14T20:28:58.164Z,5.53
2023-04-14T20:31:26.215Z,4.37
2023-04-14T20:33:54.487Z,7.53
2023-04-14T20:36:22.481Z,7.43
2023-04-14T20:38:50.617Z,5.03
2023-04-14T20:41:20.581Z,5.07
2023-04-14T20:43:48.433Z,4.90
2023-04-14T20:46:16.741Z,8.17
2023-04-14T20:48:44.789Z,9.30
2023-04-14T20:51:14.190Z,7.63
2023-04-14T20:53:42.161Z,7.47
2023-04-14T20:56:10.258Z,5.87
2023-04-14T20:58:39.690Z,7.30
2023-04-14T21:01:07.919Z,6.73
2023-04-14T21:03:36.247Z,5.70
2023-04-14T21:06:04.362Z,6.90
2023-04-14T21:08:32.655Z,6.63
2023-04-14T21:11:14.515Z,7.30
2023-04-14T21:15:31.331Z,4.47
2023-04-14T21:16:35.504Z,6.07
2023-04-14T21:19:04.856Z,5.17
2023-04-14T21:21:34.589Z,9.10
2023-04-14T21:24:03.314Z,6.63
2023-04-14T21:26:31.320Z,6.73
2023-04-14T21:29:00.950Z,7.27
2023-04-14T21:31:29.026Z,4.90
2023-04-14T21:33:56.912Z,5.63
2023-04-14T21:36:25.152Z,7.33
2023-04-14T21:38:53.085Z,6.57
2023-04-14T21:41:21.097Z,5.40
2023-04-14T21:43:49.102Z,5.10
2023-04-14T21:46:18.743Z,4.63
2023-04-14T21:48:46.777Z,4.90
2023-04-14T21:51:14.800Z,4.50
2023-04-14T21:53:44.183Z,5.73
2023-04-14T21:56:12.810Z,8.87
2023-04-14T21:58:40.904Z,6.40
2023-04-14T22:01:09.857Z,5.37
2023-04-14T22:03:40.979Z,5.33
2023-04-14T22:06:11.179Z,5.73
2023-04-14T22:08:40.202Z,9.00
2023-04-14T22:11:08.489Z,7.90
2023-04-14T22:13:36.798Z,7.47
2023-04-14T22:16:05.191Z,6.40
2023-04-14T22:18:33.262Z,5.43
2023-04-14T22:21:03.112Z,7.27
2023-04-14T22:23:31.677Z,7.73
2023-04-14T22:25:59.625Z,5.03
2023-04-14T22:28:27.621Z,4.87
2023-04-14T22:30:56.012Z,4.77
2023-04-14T22:33:24.064Z,6.63
2023-04-14T22:35:52.194Z,5.37
2023-04-14T22:38:21.605Z,5.17
2023-04-14T22:40:52.220Z,9.03
2023-04-14T22:43:20.630Z,5.23
2023-04-14T22:45:48.863Z,6.03
2023-04-14T22:48:16.927Z,4.10
2023-04-14T22:50:44.901Z,5.17
2023-04-14T22:53:13.084Z,4.23
2023-04-14T22:55:43.481Z,7.53
2023-04-14T22:58:16.346Z,4.90
2023-04-14T23:00:45.150Z,5.27
2023-04-14T23:03:13.324Z,3.97
2023-04-14T23:05:41.524Z,6.23
2023-04-14T23:08:10.267Z,8.20
2023-04-14T23:10:38.212Z,4.83
2023-04-14T23:13:08.225Z,5.10
2023-04-14T23:15:36.390Z,6.27
2023-04-14T23:18:05.571Z,5.43
2023-04-14T23:20:33.619Z,3.97
2023-04-14T23:23:02.654Z,6.63
2023-04-14T23:25:30.673Z,4.20
2023-04-14T23:27:58.636Z,4.77
2023-04-14T23:30:28.775Z,7.20
2023-04-14T23:32:56.757Z,4.03
2023-04-14T23:35:24.869Z,4.50
2023-04-14T23:37:53.125Z,4.80
2023-04-14T23:40:21.327Z,4.33
2023-04-14T23:42:49.432Z,4.40
2023-04-14T23:45:17.685Z,3.67
2023-04-14T23:47:47.319Z,3.57
2023-04-14T23:50:15.568Z,7.57
2023-04-14T23:52:45.277Z,3.67
2023-04-14T23:55:13.533Z,5.77
2023-04-14T23:57:44.100Z,3.67
